Time;durP1;ratioP1;P1;durP2;ratioP2;P2;SDS_P1;SDS_P2;PMS_P1;PMS_P2;Temp;Humidity;BMP_temperature;BMP_pressure;BME280_temperature;BME280_humidity;BME280_pressure;Samples;Min_cycle;Max_cycle;Signal;HPM_P1;HPM_P2
2022/01/22 00:00:58;;;;;;;11.63;4.70;;;-2.00;99.90;;;;;;4455007;32;20139;-65
2022/01/22 00:03:25;;;;;;;12.50;5.13;;;-2.10;99.90;;;;;;4453936;32;20200;-65
2022/01/22 00:05:52;;;;;;;11.00;5.00;;;-2.20;99.90;;;;;;4454384;32;20181;-65
2022/01/22 00:08:19;;;;;;;12.57;4.70;;;-2.30;99.90;;;;;;4454327;32;20171;-65
2022/01/22 00:10:47;;;;;;;12.57;5.27;;;-2.40;99.90;;;;;;4455744;32;20146;-66
2022/01/22 00:15:47;;;;;;;10.53;4.63;;;-2.40;99.90;;;;;;4454307;32;20460;-65
2022/01/22 00:18:14;;;;;;;10.53;4.90;;;-2.50;99.90;;;;;;4454389;32;20227;-66
2022/01/22 00:20:41;;;;;;;11.20;4.93;;;-2.50;99.90;;;;;;4454884;32;20288;-65
2022/01/22 00:23:08;;;;;;;10.17;5.20;;;-2.60;99.90;;;;;;4457348;32;20151;-66
2022/01/22 00:25:36;;;;;;;10.87;4.53;;;-2.60;99.90;;;;;;4455680;32;20503;-65
2022/01/22 00:28:04;;;;;;;11.93;4.90;;;-2.60;99.90;;;;;;4456561;32;20186;-65
2022/01/22 00:30:31;;;;;;;13.20;5.33;;;-2.60;99.90;;;;;;4455945;32;20231;-65
2022/01/22 00:32:59;;;;;;;11.70;5.00;;;-2.70;99.90;;;;;;4456865;32;20242;-65
2022/01/22 00:35:26;;;;;;;11.50;4.87;;;-2.70;99.90;;;;;;4442374;32;20244;-65
2022/01/22 00:37:53;;;;;;;13.93;5.03;;;-2.70;99.90;;;;;;4457084;32;20200;-65
2022/01/22 00:40:21;;;;;;;10.17;4.80;;;-2.70;99.90;;;;;;4442454;32;20170;-66
2022/01/22 00:42:49;;;;;;;12.00;4.97;;;-2.70;99.90;;;;;;4455186;32;20257;-65
2022/01/22 00:45:17;;;;;;;10.90;4.93;;;-2.70;99.90;;;;;;4456806;32;20210;-65
2022/01/22 00:47:46;;;;;;;10.53;5.10;;;-2.70;99.90;;;;;;4455613;32;20173;-65
2022/01/22 00:50:17;;;;;;;10.60;4.50;;;-2.80;99.90;;;;;;4442616;32;20218;-65
2022/01/22 00:52:46;;;;;;;10.90;4.50;;;-2.70;99.90;;;;;;4455269;32;20178;-65
2022/01/22 00:55:14;;;;;;;10.47;4.80;;;-2.70;99.90;;;;;;4456406;32;20223;-65
2022/01/22 00:57:41;;;;;;;10.57;4.93;;;-2.80;99.90;;;;;;4455037;32;20179;-65
2022/01/22 01:00:12;;;;;;;12.50;5.03;;;-2.80;99.90;;;;;;4454970;32;20215;-65
2022/01/22 01:02:39;;;;;;;11.30;4.63;;;-2.90;99.90;;;;;;4455192;32;20235;-65
2022/01/22 01:05:09;;;;;;;11.60;5.27;;;-2.80;99.90;;;;;;4454521;32;20539;-65
2022/01/22 01:07:36;;;;;;;11.80;5.10;;;-2.90;99.90;;;;;;4456264;32;20138;-65
2022/01/22 01:10:06;;;;;;;9.20;4.83;;;-2.90;99.90;;;;;;4456564;32;20187;-65
2022/01/22 01:12:39;;;;;;;10.50;5.33;;;-2.90;99.90;;;;;;4454809;32;20169;-66
2022/01/22 01:34:15;;;;;;;10.17;4.67;;;-3.00;99.90;;;;;;4456120;32;20195;-65
2022/01/22 01:36:44;;;;;;;9.20;4.60;;;-3.10;99.90;;;;;;4455691;32;20185;-65
2022/01/22 01:39:16;;;;;;;14.37;5.40;;;-3.00;99.90;;;;;;4455962;32;20411;-65
2022/01/22 01:44:16;;;;;;;10.10;4.83;;;-3.10;99.90;;;;;;4455902;32;20483;-65
2022/01/22 01:46:49;;;;;;;10.13;4.70;;;-3.10;99.90;;;;;;4455232;32;20258;-65
2022/01/22 01:49:17;;;;;;;10.10;4.67;;;-3.10;99.90;;;;;;4451887;32;20217;-65
2022/01/22 01:51:44;;;;;;;9.47;4.67;;;-3.10;99.90;;;;;;4447100;32;20309;-66
2022/01/22 01:59:46;;;;;;;12.17;4.93;;;-3.10;99.90;;;;;;4454381;32;20209;-66
2022/01/22 02:02:13;;;;;;;13.07;4.63;;;-3.10;99.90;;;;;;4455340;32;20208;-65
2022/01/22 02:04:41;;;;;;;11.47;4.93;;;-3.10;99.90;;;;;;4454712;32;20181;-66
2022/01/22 02:07:09;;;;;;;8.33;4.63;;;-3.10;99.90;;;;;;4455426;32;20201;-65
2022/01/22 02:09:38;;;;;;;12.57;4.97;;;-3.10;99.90;;;;;;4453765;32;20165;-65
2022/01/22 02:12:31;;;;;;;11.70;5.00;;;-3.10;99.90;;;;;;4454353;32;20175;-65
2022/01/22 02:25:57;;;;;;;11.80;5.73;;;-3.00;99.90;;;;;;4454906;32;20226;-65
2022/01/22 02:28:24;;;;;;;10.30;5.27;;;-3.00;99.90;;;;;;4454213;32;20422;-66
2022/01/22 02:30:58;;;;;;;11.47;5.50;;;-3.00;99.90;;;;;;4454894;32;20165;-65
2022/01/22 02:36:05;;;;;;;11.57;5.13;;;-2.90;99.90;;;;;;4454000;32;20228;-66
2022/01/22 02:38:44;;;;;;;11.77;5.13;;;-2.90;99.90;;;;;;4454083;32;20185;-65
2022/01/22 02:41:16;;;;;;;10.57;4.90;;;-2.80;99.90;;;;;;4453442;32;20175;-66
2022/01/22 02:43:43;;;;;;;11.67;5.43;;;-2.80;99.90;;;;;;4453237;32;20175;-65
2022/01/22 02:46:13;;;;;;;11.30;4.97;;;-2.80;99.90;;;;;;4454964;32;20512;-65
2022/01/22 02:48:40;;;;;;;10.53;5.37;;;-2.80;99.90;;;;;;4453950;32;20475;-65
2022/01/22 02:51:07;;;;;;;11.80;4.83;;;-2.90;99.90;;;;;;4453017;32;20543;-66
2022/01/22 02:53:34;;;;;;;10.37;4.80;;;-2.90;99.90;;;;;;4454425;32;20207;-65
2022/01/22 02:56:01;;;;;;;10.63;4.80;;;-3.00;99.90;;;;;;4442082;32;20183;-65
2022/01/22 02:58:28;;;;;;;10.77;5.03;;;-3.00;99.90;;;;;;4454474;32;20213;-66
2022/01/22 03:00:56;;;;;;;15.10;5.27;;;-3.00;99.90;;;;;;4454931;32;20158;-66
2022/01/22 03:03:23;;;;;;;11.20;4.63;;;-3.00;99.90;;;;;;4453004;32;20604;-66
2022/01/22 03:05:50;;;;;;;10.90;4.90;;;-3.00;99.90;;;;;;4455166;32;20386;-65
2022/01/22 03:08:19;;;;;;;10.20;4.63;;;-3.00;99.90;;;;;;4454681;32;20629;-65
2022/01/22 03:10:50;;;;;;;9.33;4.60;;;-2.90;99.90;;;;;;4452962;32;20174;-65
2022/01/22 03:15:56;;;;;;;14.30;4.67;;;-3.00;99.90;;;;;;4453283;32;20516;-66
2022/01/22 03:18:43;;;;;;;11.17;4.90;;;-3.00;99.90;;;;;;4453493;32;20256;-65
2022/01/22 03:29:30;;;;;;;8.90;4.13;;;-3.00;99.90;;;;;;4453085;32;20228;-65
2022/01/22 03:31:57;;;;;;;8.80;3.93;;;-3.00;99.90;;;;;;4453972;32;20189;-65
2022/01/22 03:34:27;;;;;;;9.23;4.10;;;-3.00;99.90;;;;;;4453449;32;20240;-65
2022/01/22 03:36:54;;;;;;;9.27;3.93;;;-3.00;99.90;;;;;;4453784;32;20203;-66
2022/01/22 03:39:21;;;;;;;8.60;3.80;;;-3.00;99.90;;;;;;4453338;32;20199;-66
2022/01/22 03:41:51;;;;;;;11.53;3.70;;;-3.00;99.90;;;;;;4452993;32;20215;-66
2022/01/22 03:44:19;;;;;;;12.20;3.83;;;-2.90;99.90;;;;;;4453068;32;20201;-67
2022/01/22 03:46:46;;;;;;;8.03;4.10;;;-2.90;99.90;;;;;;4454400;32;20196;-66
2022/01/22 03:49:16;;;;;;;8.50;3.33;;;-2.90;99.90;;;;;;4452734;32;20208;-65
2022/01/22 03:51:46;;;;;;;11.00;3.33;;;-2.90;99.90;;;;;;4454433;32;20238;-65
2022/01/22 03:54:13;;;;;;;8.57;3.67;;;-2.90;99.90;;;;;;4455310;32;20182;-66
2022/01/22 03:56:44;;;;;;;8.33;3.60;;;-2.90;99.90;;;;;;4456325;32;20229;-66
2022/01/22 03:59:12;;;;;;;9.53;3.90;;;-2.90;99.90;;;;;;4456423;32;20205;-66
2022/01/22 04:04:39;;;;;;;7.57;2.90;;;-2.90;99.90;;;;;;4411272;32;20183;-65
2022/01/22 04:09:41;;;;;;;6.63;3.40;;;-2.90;99.90;;;;;;4425863;32;20181;-65
2022/01/22 04:12:10;;;;;;;10.10;3.40;;;-2.90;99.90;;;;;;4425150;32;20190;-65
2022/01/22 04:14:45;;;;;;;8.50;3.40;;;-2.80;99.90;;;;;;4411194;32;20171;-66
2022/01/22 04:25:17;;;;;;;4.83;2.70;;;-2.70;99.90;;;;;;4411134;32;20216;-66
2022/01/22 04:27:45;;;;;;;6.63;3.10;;;-2.60;99.90;;;;;;4411875;32;20217;-65
2022/01/22 04:30:12;;;;;;;7.87;2.77;;;-2.60;99.90;;;;;;4410852;32;20208;-65
2022/01/22 04:32:39;;;;;;;6.77;2.73;;;-2.60;99.90;;;;;;4412615;32;20232;-66
2022/01/22 04:35:06;;;;;;;7.17;2.90;;;-2.50;99.90;;;;;;4424386;32;20241;-66
2022/01/22 04:37:33;;;;;;;8.43;3.03;;;-2.50;99.90;;;;;;4423886;32;20201;-66
2022/01/22 04:40:00;;;;;;;9.03;3.07;;;-2.50;99.90;;;;;;4423426;32;20168;-66
2022/01/22 04:42:30;;;;;;;8.20;2.90;;;-2.50;99.90;;;;;;4442593;32;20202;-65
2022/01/22 04:45:27;;;;;;;6.67;2.73;;;-2.50;99.90;;;;;;4455193;32;20201;-66
2022/01/22 04:55:40;;;;;;;7.03;2.90;;;-2.50;99.90;;;;;;4456714;32;20189;-66
2022/01/22 04:58:07;;;;;;;8.03;3.27;;;-2.50;99.90;;;;;;4443580;32;20182;-66
2022/01/22 05:00:38;;;;;;;5.67;2.67;;;-2.50;99.90;;;;;;4455008;32;20185;-66
2022/01/22 05:03:05;;;;;;;9.10;3.10;;;-2.40;99.90;;;;;;4456936;32;20212;-65
2022/01/22 05:05:32;;;;;;;8.13;3.00;;;-2.40;99.90;;;;;;4454965;32;20190;-65
2022/01/22 05:07:59;;;;;;;6.47;3.10;;;-2.30;99.90;;;;;;4454817;32;20174;-66
2022/01/22 05:10:27;;;;;;;7.47;3.07;;;-2.30;99.90;;;;;;4455211;32;20185;-66
2022/01/22 05:12:54;;;;;;;8.83;2.80;;;-2.30;99.90;;;;;;4455242;32;20236;-65
2022/01/22 05:15:21;;;;;;;9.13;3.23;;;-2.30;99.90;;;;;;4454754;32;20193;-66
2022/01/22 05:17:49;;;;;;;5.97;2.93;;;-2.20;99.90;;;;;;4454604;32;20240;-66
2022/01/22 05:25:22;;;;;;;9.80;3.27;;;-2.30;99.90;;;;;;4454852;32;20279;-65
2022/01/22 05:38:33;;;;;;;8.30;3.00;;;-2.20;99.90;;;;;;4455639;32;20194;-65
2022/01/22 05:41:01;;;;;;;6.00;2.67;;;-2.20;99.90;;;;;;4455962;32;20150;-65
2022/01/22 05:43:28;;;;;;;8.50;3.00;;;-2.10;99.90;;;;;;4454469;32;20250;-65
2022/01/22 05:45:55;;;;;;;9.73;2.90;;;-2.10;99.90;;;;;;4456797;32;20214;-66
2022/01/22 05:48:22;;;;;;;5.47;2.80;;;-2.00;99.90;;;;;;4455335;32;20185;-65
2022/01/22 05:50:57;;;;;;;7.87;3.00;;;-2.00;99.90;;;;;;4454848;32;20189;-66
2022/01/22 06:01:14;;;;;;;9.20;2.70;;;-2.00;99.90;;;;;;4454422;32;20178;-65
2022/01/22 06:03:43;;;;;;;6.60;2.50;;;-2.00;99.90;;;;;;4453959;32;20177;-66
2022/01/22 06:06:10;;;;;;;7.90;2.67;;;-2.00;99.90;;;;;;4454503;32;20182;-65
2022/01/22 06:08:57;;;;;;;9.20;2.87;;;-2.00;99.90;;;;;;4454158;32;20226;-65
2022/01/22 06:11:26;;;;;;;5.57;2.40;;;-2.00;99.90;;;;;;4457097;32;20153;-65
2022/01/22 06:13:53;;;;;;;5.40;2.63;;;-1.90;99.90;;;;;;4454350;32;20234;-65
2022/01/22 06:16:23;;;;;;;5.23;2.63;;;-1.90;99.90;;;;;;4455566;32;20184;-66
2022/01/22 06:18:51;;;;;;;6.30;2.63;;;-2.00;99.90;;;;;;4455099;32;20225;-65
2022/01/22 06:21:18;;;;;;;6.77;2.70;;;-1.90;99.90;;;;;;4454997;32;20208;-65
2022/01/22 06:23:46;;;;;;;8.17;2.60;;;-2.00;99.90;;;;;;4455181;32;20154;-66
2022/01/22 06:26:13;;;;;;;8.93;2.60;;;-2.00;99.90;;;;;;4454173;32;20207;-66
2022/01/22 06:28:41;;;;;;;7.73;2.73;;;-2.10;99.90;;;;;;4454441;32;20219;-66
2022/01/22 06:31:08;;;;;;;7.73;2.90;;;-2.00;99.90;;;;;;4454896;32;20195;-66
2022/01/22 06:33:35;;;;;;;7.30;2.63;;;-2.00;99.90;;;;;;4455606;32;20569;-66
2022/01/22 06:36:03;;;;;;;6.60;2.77;;;-2.00;99.90;;;;;;4440216;32;20541;-66
2022/01/22 06:38:30;;;;;;;6.93;2.20;;;-1.90;99.90;;;;;;4453348;32;20671;-65
2022/01/22 06:43:42;;;;;;;6.10;2.40;;;-1.90;99.90;;;;;;4453975;32;20257;-66
2022/01/22 06:46:10;;;;;;;5.90;2.30;;;-1.90;99.90;;;;;;4454435;32;20182;-65
2022/01/22 06:48:37;;;;;;;7.10;2.10;;;-1.90;99.90;;;;;;4453279;32;20578;-65
2022/01/22 06:51:04;;;;;;;8.17;2.50;;;-1.80;99.90;;;;;;4440483;32;20186;-66
2022/01/22 06:53:35;;;;;;;6.37;2.57;;;-1.90;99.90;;;;;;4452749;32;20186;-66
2022/01/22 06:56:05;;;;;;;5.87;2.07;;;-1.80;99.90;;;;;;4453389;32;20242;-65
2022/01/22 06:58:32;;;;;;;6.43;2.30;;;-1.70;99.90;;;;;;4453789;32;20170;-66
2022/01/22 07:00:59;;;;;;;4.83;1.97;;;-1.70;99.90;;;;;;4452833;32;20436;-65
2022/01/22 07:03:26;;;;;;;4.80;1.80;;;-1.60;99.90;;;;;;4453688;32;20177;-65
2022/01/22 07:05:53;;;;;;;6.37;2.20;;;-1.60;99.90;;;;;;4453220;32;20566;-66
2022/01/22 07:08:20;;;;;;;7.90;2.43;;;-1.50;99.90;;;;;;4453074;32;20193;-65
2022/01/22 07:10:47;;;;;;;5.33;2.33;;;-1.50;99.90;;;;;;4453175;32;20461;-65
2022/01/22 07:13:14;;;;;;;6.27;2.50;;;-1.60;99.90;;;;;;4453601;32;20558;-66
2022/01/22 07:15:42;;;;;;;9.83;2.60;;;-1.70;99.90;;;;;;4454480;32;20160;-65
2022/01/22 07:18:12;;;;;;;5.47;2.43;;;-1.70;99.90;;;;;;4448445;32;20185;-66
2022/01/22 07:20:41;;;;;;;5.30;2.20;;;-1.60;99.90;;;;;;4436983;32;20195;-65
2022/01/22 07:25:43;;;;;;;6.57;2.27;;;-1.50;99.90;;;;;;4437177;32;20237;-66
2022/01/22 07:28:11;;;;;;;4.87;2.20;;;-1.40;99.90;;;;;;4437671;32;20506;-66
2022/01/22 07:30:39;;;;;;;7.13;2.40;;;-1.40;99.90;;;;;;4437395;32;20204;-65
2022/01/22 07:33:06;;;;;;;8.43;2.77;;;-1.40;99.90;;;;;;4424946;32;20625;-66
2022/01/22 07:35:34;;;;;;;6.20;2.27;;;-1.40;99.90;;;;;;4424586;32;20197;-66
2022/01/22 07:38:02;;;;;;;6.33;2.43;;;-1.30;99.90;;;;;;4438729;32;20242;-66
2022/01/22 07:40:30;;;;;;;6.43;2.50;;;-1.20;99.90;;;;;;4437351;32;20167;-66
2022/01/22 07:42:57;;;;;;;6.53;2.70;;;-1.20;99.90;;;;;;4438398;32;20151;-65
2022/01/22 07:45:24;;;;;;;6.80;2.40;;;-1.20;99.90;;;;;;4437173;32;20200;-66
2022/01/22 07:47:51;;;;;;;7.80;2.50;;;-1.20;99.90;;;;;;4438882;32;20150;-66
2022/01/22 07:50:19;;;;;;;7.00;2.37;;;-1.20;99.90;;;;;;4437206;32;20201;-66
2022/01/22 07:52:46;;;;;;;4.70;2.33;;;-1.10;99.90;;;;;;4439150;32;20267;-66
2022/01/22 07:55:13;;;;;;;8.13;2.50;;;-1.00;99.90;;;;;;4437999;32;20197;-66
2022/01/22 07:57:40;;;;;;;4.97;2.20;;;-0.90;99.90;;;;;;4438779;32;20185;-65
2022/01/22 08:00:08;;;;;;;7.77;2.60;;;-0.90;99.90;;;;;;4438400;32;20182;-65
2022/01/22 08:02:35;;;;;;;6.03;2.70;;;-0.90;99.90;;;;;;4437276;32;20182;-65
2022/01/22 08:05:02;;;;;;;5.50;2.87;;;-0.90;99.90;;;;;;4437439;32;20174;-65
2022/01/22 08:07:29;;;;;;;9.60;3.13;;;-0.90;99.90;;;;;;4437376;32;20544;-66
2022/01/22 08:09:58;;;;;;;3.87;2.47;;;-0.80;99.90;;;;;;4436703;32;20531;-66
2022/01/22 08:12:25;;;;;;;5.83;2.83;;;-0.80;99.90;;;;;;4437307;32;20177;-66
2022/01/22 08:14:52;;;;;;;8.43;2.83;;;-0.80;99.90;;;;;;4437653;32;20190;-65
2022/01/22 08:17:19;;;;;;;6.23;2.87;;;-0.80;99.90;;;;;;4436763;32;20244;-65
2022/01/22 08:19:46;;;;;;;7.07;3.47;;;-0.80;99.90;;;;;;4437002;32;20185;-66
2022/01/22 08:22:13;;;;;;;5.93;2.97;;;-0.70;99.90;;;;;;4436796;32;20177;-66
2022/01/22 08:24:40;;;;;;;7.47;2.93;;;-0.70;99.90;;;;;;4437866;32;20146;-66
2022/01/22 08:29:37;;;;;;;7.57;2.97;;;-0.70;99.90;;;;;;4436759;32;20174;-66
2022/01/22 08:37:20;;;;;;;10.40;3.50;;;-0.60;99.90;;;;;;4439087;32;20526;-65
2022/01/22 08:39:48;;;;;;;7.23;2.93;;;-0.60;99.90;;;;;;4436414;32;20331;-65
2022/01/22 08:42:15;;;;;;;10.10;3.43;;;-0.60;99.90;;;;;;4438828;32;20324;-66
2022/01/22 08:44:42;;;;;;;7.40;3.03;;;-0.40;99.90;;;;;;4439346;32;20567;-65
2022/01/22 08:47:09;;;;;;;7.23;3.37;;;-0.30;99.90;;;;;;4440905;32;20186;-65
2022/01/22 08:49:37;;;;;;;6.80;3.30;;;-0.20;99.90;;;;;;4439704;32;20241;-65
2022/01/22 08:52:10;;;;;;;7.63;3.30;;;-0.10;99.90;;;;;;4440460;32;20236;-65
2022/01/22 08:54:39;;;;;;;6.90;3.20;;;-0.10;99.90;;;;;;4440559;32;20169;-66
2022/01/22 08:57:06;;;;;;;7.63;3.37;;;-0.10;99.90;;;;;;4441348;32;20527;-65
2022/01/22 08:59:33;;;;;;;6.40;3.07;;;0.00;99.90;;;;;;4439135;32;20215;-66
2022/01/22 09:02:01;;;;;;;7.57;3.30;;;0.10;99.90;;;;;;4439287;32;20171;-67
2022/01/22 09:04:30;;;;;;;9.30;3.40;;;0.20;99.90;;;;;;4438563;32;20553;-67
2022/01/22 09:06:57;;;;;;;7.07;3.13;;;0.20;99.90;;;;;;4440659;32;20173;-67
2022/01/22 09:09:26;;;;;;;7.50;3.20;;;0.20;99.90;;;;;;4447287;32;20177;-66
2022/01/22 09:11:54;;;;;;;6.93;2.93;;;0.30;99.90;;;;;;4438755;32;20227;-66
2022/01/22 09:14:21;;;;;;;6.07;3.00;;;0.30;99.90;;;;;;4438998;32;20213;-66
2022/01/22 09:16:51;;;;;;;6.40;2.63;;;0.30;99.90;;;;;;4439493;32;20178;-66
2022/01/22 09:19:22;;;;;;;5.87;2.83;;;0.40;99.90;;;;;;4440495;32;20178;-66
2022/01/22 09:21:50;;;;;;;8.10;2.83;;;0.60;99.90;;;;;;4438957;32;20182;-67
2022/01/22 09:24:17;;;;;;;4.17;2.73;;;0.80;99.90;;;;;;4438427;32;20182;-66
2022/01/22 09:26:45;;;;;;;5.13;2.57;;;0.80;99.90;;;;;;4438620;32;20198;-67
2022/01/22 09:29:12;;;;;;;4.37;2.60;;;0.70;99.90;;;;;;4440345;32;20221;-67
2022/01/22 09:31:39;;;;;;;6.20;2.67;;;0.80;99.90;;;;;;4440082;32;20224;-68
2022/01/22 09:34:07;;;;;;;4.80;2.40;;;0.80;99.90;;;;;;4439891;32;20201;-67
2022/01/22 09:36:34;;;;;;;5.07;2.10;;;0.70;99.90;;;;;;4439173;32;20213;-67
2022/01/22 09:39:03;;;;;;;4.47;2.00;;;0.70;99.90;;;;;;4438758;32;20193;-67
2022/01/22 09:41:30;;;;;;;7.10;2.20;;;0.60;99.90;;;;;;4425858;32;20178;-67
2022/01/22 09:44:17;;;;;;;4.43;2.10;;;0.60;99.90;;;;;;4438345;32;20182;-68
2022/01/22 09:46:46;;;;;;;4.00;1.97;;;0.70;99.90;;;;;;4438737;32;20437;-67
2022/01/22 09:49:14;;;;;;;3.17;2.20;;;0.60;99.90;;;;;;4438579;32;20182;-67
2022/01/22 09:51:42;;;;;;;5.33;2.23;;;0.70;99.90;;;;;;4440277;32;20162;-69
2022/01/22 09:54:11;;;;;;;3.80;2.27;;;0.70;99.90;;;;;;4426129;32;20178;-67
2022/01/22 09:56:40;;;;;;;4.83;2.40;;;0.70;99.90;;;;;;4438861;32;20170;-66
2022/01/22 09:59:13;;;;;;;3.90;2.13;;;0.70;99.90;;;;;;4439578;32;20429;-67
2022/01/22 10:01:40;;;;;;;4.53;2.27;;;0.90;99.90;;;;;;4438364;32;20179;-67
2022/01/22 10:04:09;;;;;;;5.77;2.27;;;1.00;99.90;;;;;;4440895;32;20269;-66
2022/01/22 10:06:53;;;;;;;3.63;2.13;;;1.00;99.90;;;;;;4454813;32;20238;-67
2022/01/22 10:09:26;;;;;;;5.30;2.07;;;1.00;99.90;;;;;;4441650;32;20219;-66
2022/01/22 10:12:11;;;;;;;2.93;2.00;;;1.10;99.90;;;;;;4441249;32;20182;-67
2022/01/22 10:15:12;;;;;;;4.47;2.47;;;1.10;99.90;;;;;;4441554;32;20182;-66
2022/01/22 10:17:43;;;;;;;4.37;2.10;;;1.10;99.90;;;;;;4441113;32;20230;-66
2022/01/22 10:20:23;;;;;;;4.03;2.30;;;1.20;99.90;;;;;;4441126;32;20242;-67
2022/01/22 10:23:02;;;;;;;5.17;2.70;;;1.30;99.90;;;;;;4454949;32;20176;-67
2022/01/22 10:25:34;;;;;;;4.13;2.10;;;1.30;99.90;;;;;;4441606;32;20193;-67
2022/01/22 10:28:10;;;;;;;2.77;1.97;;;1.30;99.90;;;;;;4442229;32;20446;-67
2022/01/22 10:30:38;;;;;;;3.97;2.33;;;1.20;99.90;;;;;;4440383;32;20535;-67
2022/01/22 10:36:20;;;;;;;3.07;1.90;;;1.20;99.90;;;;;;4440948;32;20221;-67
2022/01/22 10:38:49;;;;;;;2.60;1.80;;;1.10;99.90;;;;;;4441107;32;20194;-67
2022/01/22 10:41:30;;;;;;;2.67;1.80;;;1.00;99.90;;;;;;4440777;32;20213;-67
2022/01/22 10:43:59;;;;;;;2.80;1.70;;;1.10;99.90;;;;;;4446331;32;20182;-68
2022/01/22 10:46:43;;;;;;;3.60;1.70;;;1.20;99.90;;;;;;4438374;32;20233;-67
2022/01/22 10:49:19;;;;;;;3.50;1.80;;;1.30;99.90;;;;;;4438036;32;20231;-67
2022/01/22 10:52:02;;;;;;;3.33;2.00;;;1.20;99.90;;;;;;4438187;32;20219;-67
2022/01/22 10:54:35;;;;;;;3.33;1.80;;;1.20;99.90;;;;;;4438112;32;20201;-67
2022/01/22 10:57:14;;;;;;;2.80;2.00;;;1.10;99.90;;;;;;4437760;32;20230;-67
2022/01/22 10:59:51;;;;;;;3.57;2.13;;;1.00;99.90;;;;;;4439338;32;20200;-68
2022/01/22 11:02:34;;;;;;;3.63;2.27;;;1.00;99.90;;;;;;4438474;32;20234;-67
2022/01/22 11:05:02;;;;;;;3.30;2.00;;;1.10;99.90;;;;;;4437828;32;20186;-67
2022/01/22 11:07:29;;;;;;;3.67;2.43;;;1.00;99.90;;;;;;4437912;32;20558;-67
2022/01/22 11:10:04;;;;;;;3.07;2.03;;;1.00;99.90;;;;;;4437273;32;20196;-67
2022/01/22 11:12:32;;;;;;;3.97;2.50;;;0.90;99.90;;;;;;4437955;32;20238;-68
2022/01/22 11:14:59;;;;;;;4.40;2.17;;;0.90;99.90;;;;;;4438384;32;20482;-67
2022/01/22 11:17:31;;;;;;;4.90;2.23;;;1.00;99.90;;;;;;4437166;32;20240;-67
2022/01/22 11:20:00;;;;;;;3.90;1.90;;;1.10;99.90;;;;;;4438064;32;20235;-67
2022/01/22 11:22:30;;;;;;;2.90;1.80;;;1.20;99.90;;;;;;4441233;32;20209;-67
2022/01/22 11:24:59;;;;;;;3.43;2.07;;;1.30;99.90;;;;;;4441975;32;20180;-68
2022/01/22 11:27:26;;;;;;;2.90;1.80;;;1.30;99.90;;;;;;4438695;32;20182;-68
2022/01/22 11:30:07;;;;;;;2.60;2.10;;;1.40;99.90;;;;;;4437380;32;20290;-67
2022/01/22 11:32:49;;;;;;;5.30;1.90;;;1.40;99.90;;;;;;4438112;32;20473;-67
2022/01/22 11:35:41;;;;;;;2.67;1.97;;;1.50;99.90;;;;;;4438982;32;20520;-67
2022/01/22 11:38:12;;;;;;;3.50;1.90;;;1.50;99.90;;;;;;4438289;32;20190;-67
2022/01/22 11:40:39;;;;;;;4.70;2.10;;;1.50;99.90;;;;;;4437430;32;20178;-67
2022/01/22 11:43:20;;;;;;;3.80;2.20;;;1.50;99.90;;;;;;4438887;32;20190;-67
2022/01/22 11:45:54;;;;;;;3.87;2.43;;;1.40;99.90;;;;;;4438980;32;20213;-67
2022/01/22 11:48:24;;;;;;;4.47;2.40;;;1.30;99.90;;;;;;4438328;32;20227;-67
2022/01/22 11:51:16;;;;;;;4.47;2.50;;;1.60;99.90;;;;;;4439172;32;20235;-67
2022/01/22 11:53:55;;;;;;;3.60;2.47;;;2.10;99.90;;;;;;4437938;32;20174;-68
2022/01/22 11:56:26;;;;;;;4.33;2.43;;;2.40;99.90;;;;;;4447895;32;20154;-67
2022/01/22 11:58:57;;;;;;;3.47;2.20;;;2.40;99.90;;;;;;4453610;32;20212;-68
2022/01/22 12:01:52;;;;;;;3.93;2.70;;;2.30;99.90;;;;;;4452405;32;20185;-67
2022/01/22 12:04:24;;;;;;;3.70;2.30;;;2.40;99.90;;;;;;4449986;32;20595;-67
2022/01/22 12:07:04;;;;;;;5.57;2.50;;;2.40;99.90;;;;;;4445452;32;20492;-67
2022/01/22 12:10:15;;;;;;;4.90;2.57;;;3.40;99.90;;;;;;4449407;32;20201;-68
2022/01/22 12:15:39;;;;;;;3.60;2.33;;;4.80;99.90;;;;;;4455372;32;20212;-67
2022/01/22 12:18:12;;;;;;;4.37;2.40;;;4.70;99.90;;;;;;4455079;32;20218;-67
2022/01/22 12:23:40;;;;;;;3.47;2.10;;;3.80;99.90;;;;;;4456434;32;20241;-67
2022/01/22 12:26:07;;;;;;;3.60;2.10;;;3.30;99.90;;;;;;4457822;32;20542;-68
2022/01/22 12:28:40;;;;;;;2.67;1.80;;;3.00;99.90;;;;;;4454771;32;20193;-68
2022/01/22 12:31:19;;;;;;;3.23;2.27;;;2.70;99.90;;;;;;4457995;32;20212;-67
2022/01/22 12:33:52;;;;;;;3.97;2.13;;;2.60;99.90;;;;;;4454697;32;20147;-67
2022/01/22 12:36:27;;;;;;;5.30;2.20;;;2.40;99.90;;;;;;4446205;32;20559;-67
2022/01/22 12:39:15;;;;;;;2.83;2.00;;;2.20;99.90;;;;;;4449363;32;20173;-67
2022/01/22 12:41:54;;;;;;;5.13;2.13;;;2.10;99.90;;;;;;4456839;32;20193;-67
2022/01/22 12:44:34;;;;;;;4.20;2.10;;;2.10;99.90;;;;;;4456835;32;20190;-67
2022/01/22 12:47:09;;;;;;;4.47;2.60;;;1.90;99.90;;;;;;4456683;32;20216;-67
2022/01/22 12:49:36;;;;;;;5.37;2.50;;;1.80;99.90;;;;;;4454693;32;20249;-67
2022/01/22 12:52:09;;;;;;;4.33;2.40;;;1.80;99.90;;;;;;4454553;32;20181;-68
2022/01/22 12:54:45;;;;;;;3.30;2.37;;;1.80;99.90;;;;;;4455891;32;20228;-68
2022/01/22 12:57:30;;;;;;;3.97;2.23;;;1.80;99.90;;;;;;4457154;32;20168;-67
2022/01/22 13:00:12;;;;;;;5.07;2.40;;;1.70;99.90;;;;;;4456479;32;20298;-67
2022/01/22 13:02:49;;;;;;;4.03;2.03;;;1.50;99.90;;;;;;4456879;32;20154;-68
2022/01/22 13:05:19;;;;;;;4.63;2.30;;;1.60;99.90;;;;;;4454420;32;20189;-68
2022/01/22 13:07:54;;;;;;;5.93;2.63;;;1.90;99.90;;;;;;4457409;32;20415;-68
2022/01/22 13:10:28;;;;;;;3.43;2.23;;;2.40;99.90;;;;;;4455313;32;20258;-68
2022/01/22 13:12:58;;;;;;;3.87;2.20;;;2.80;99.90;;;;;;4454447;32;20230;-68
2022/01/22 13:15:30;;;;;;;3.20;2.20;;;3.40;99.90;;;;;;4455551;32;20178;-68
2022/01/22 13:18:00;;;;;;;4.93;2.40;;;4.00;99.90;;;;;;4456293;32;20231;-68
2022/01/22 13:20:32;;;;;;;3.83;2.37;;;4.30;99.90;;;;;;4454465;32;20250;-68
2022/01/22 13:23:11;;;;;;;3.77;2.20;;;4.60;99.90;;;;;;4455187;32;20250;-68
2022/01/22 13:25:39;;;;;;;4.63;1.93;;;4.90;99.90;;;;;;4455556;32;20152;-67
2022/01/22 13:28:12;;;;;;;3.30;2.00;;;4.90;99.90;;;;;;4454482;32;20177;-68
2022/01/22 13:30:47;;;;;;;3.30;2.13;;;5.10;99.90;;;;;;4452019;32;20174;-67
2022/01/22 13:33:20;;;;;;;4.60;2.37;;;5.30;99.90;;;;;;4439032;32;20223;-67
2022/01/22 13:39:23;;;;;;;4.50;2.20;;;5.40;99.90;;;;;;4444132;32;20340;-70
2022/01/22 13:47:46;;;;;;;4.17;2.30;;;4.90;98.40;;;;;;4438762;32;20192;-67
2022/01/22 13:50:14;;;;;;;5.70;2.30;;;4.60;99.20;;;;;;4438490;32;20574;-67
2022/01/22 13:52:44;;;;;;;5.60;2.33;;;4.40;99.90;;;;;;4438318;32;20533;-67
2022/01/22 13:55:14;;;;;;;6.67;2.33;;;4.30;99.90;;;;;;4438686;32;20200;-67
2022/01/22 13:57:47;;;;;;;3.97;2.37;;;4.50;99.90;;;;;;4439207;32;20192;-67
2022/01/22 14:00:18;;;;;;;5.67;2.70;;;4.60;99.90;;;;;;4438639;32;20189;-67
2022/01/22 14:03:48;;;;;;;4.00;2.40;;;4.80;99.90;;;;;;4439414;32;20152;-67
2022/01/22 14:06:09;;;;;;;4.10;2.07;;;5.00;99.90;;;;;;4437802;32;20458;-67
2022/01/22 14:08:37;;;;;;;3.97;2.40;;;4.10;99.00;;;;;;4442558;32;20209;-67
2022/01/22 14:11:12;;;;;;;5.80;1.90;;;3.30;99.90;;;;;;4438404;32;20201;-67
2022/01/22 14:13:41;;;;;;;6.73;2.00;;;2.70;99.90;;;;;;4437844;32;20185;-67
2022/01/22 14:16:19;;;;;;;3.57;2.00;;;2.40;99.90;;;;;;4438540;32;20174;-67
2022/01/22 14:18:48;;;;;;;5.17;2.23;;;2.50;99.90;;;;;;4439609;32;20186;-67
2022/01/22 14:21:21;;;;;;;3.50;2.10;;;2.20;99.90;;;;;;4438110;32;20178;-67
2022/01/22 14:23:50;;;;;;;3.97;1.93;;;2.10;99.90;;;;;;4438336;32;20175;-68
2022/01/22 14:26:25;;;;;;;3.33;2.00;;;2.30;99.90;;;;;;4438758;32;20178;-67
2022/01/22 14:29:04;;;;;;;5.30;2.00;;;2.40;99.90;;;;;;4443680;32;20166;-68
2022/01/22 14:31:53;;;;;;;4.43;2.40;;;2.30;99.90;;;;;;4453957;32;20173;-67
2022/01/22 14:34:36;;;;;;;3.93;2.10;;;2.10;99.90;;;;;;4454368;32;20182;-67
2022/01/22 14:37:23;;;;;;;2.57;1.90;;;1.80;99.90;;;;;;4449331;32;20494;-67
2022/01/22 14:45:31;;;;;;;4.03;2.20;;;1.00;99.90;;;;;;4437867;32;20401;-67
2022/01/22 14:48:01;;;;;;;6.10;2.07;;;0.90;99.90;;;;;;4437990;32;20384;-67
2022/01/22 14:50:31;;;;;;;6.23;2.00;;;0.70;99.90;;;;;;4438189;32;20182;-67
2022/01/22 14:53:01;;;;;;;3.50;2.10;;;0.60;99.90;;;;;;4437672;32;20208;-67
2022/01/22 14:55:28;;;;;;;5.07;2.47;;;0.40;99.90;;;;;;4439059;32;20189;-67
2022/01/22 14:57:57;;;;;;;4.60;2.33;;;0.30;99.90;;;;;;4437848;32;20420;-67
2022/01/22 15:00:25;;;;;;;5.97;2.40;;;0.30;99.90;;;;;;4438859;32;20178;-67
2022/01/22 15:02:52;;;;;;;4.27;2.20;;;0.20;99.90;;;;;;4439416;32;20200;-66
2022/01/22 15:05:19;;;;;;;3.47;2.27;;;0.10;99.90;;;;;;4439554;32;20528;-67
2022/01/22 15:07:47;;;;;;;5.93;2.40;;;0.10;99.90;;;;;;4438661;32;20571;-67
2022/01/22 15:10:20;;;;;;;4.07;2.03;;;0.00;99.90;;;;;;4438337;32;20193;-66
2022/01/22 15:12:51;;;;;;;3.90;2.10;;;-0.10;99.90;;;;;;4437755;32;20214;-67
2022/01/22 15:15:45;;;;;;;4.30;2.50;;;-0.10;99.90;;;;;;4439038;32;20440;-67
2022/01/22 15:18:14;;;;;;;5.63;2.97;;;-0.20;99.90;;;;;;4437842;32;20532;-67
2022/01/22 15:20:42;;;;;;;4.97;2.50;;;-0.20;99.90;;;;;;4438993;32;20228;-67
2022/01/22 15:23:12;;;;;;;3.97;2.17;;;-0.20;99.90;;;;;;4446515;32;20181;-67